Time;durP1;ratioP1;P1;durP2;ratioP2;P2;SDS_P1;SDS_P2;PMS_P1;PMS_P2;Temp;Humidity;BMP_temperature;BMP_pressure;BME280_temperature;BME280_humidity;BME280_pressure;Samples;Min_cycle;Max_cycle;Signal;HPM_P1;HPM_P2
2021/07/28 00:00:10;;;;;;;0.40;0.40;;;;;;;17.55;86.07;96725.25;29394;248;64009;-64
2021/07/28 00:00:41;;;;;;;0.40;0.40;;;;;;;17.54;85.88;96720.91;29395;212;63004;-63
2021/07/28 00:01:22;;;;;;;0.50;0.50;;;;;;;17.53;85.78;96728.34;29395;219;63009;-64
2021/07/28 00:01:54;;;;;;;0.40;0.40;;;;;;;17.54;86.09;96729.13;29417;221;63004;-63
2021/07/28 00:02:25;;;;;;;0.40;0.40;;;;;;;17.52;85.95;96714.97;29395;215;63009;-63
2021/07/28 00:02:56;;;;;;;0.40;0.40;;;;;;;17.52;85.97;96725.94;29394;281;64005;-63
2021/07/28 00:03:27;;;;;;;0.50;0.50;;;;;;;17.50;86.22;96722.72;29395;232;63019;-63
2021/07/28 00:03:59;;;;;;;0.40;0.40;;;;;;;17.49;86.23;96716.44;29395;222;63005;-62
2021/07/28 00:04:38;;;;;;;0.40;0.40;;;;;;;17.49;86.25;96726.63;29395;235;63009;-63
2021/07/28 00:05:10;;;;;;;0.50;0.50;;;;;;;17.47;86.04;96724.22;29395;251;63005;-64
2021/07/28 00:05:42;;;;;;;2.42;2.37;;;;;;;17.47;85.91;96718.72;29395;200;63009;-63
2021/07/28 00:06:23;;;;;;;0.40;0.40;;;;;;;17.48;85.82;96719.53;29394;214;64005;-62
2021/07/28 00:06:54;;;;;;;0.40;0.40;;;;;;;17.48;85.92;96720.31;29395;197;63009;-62
2021/07/28 00:07:25;;;;;;;0.40;0.40;;;;;;;17.49;86.39;96721.13;29395;208;63004;-63
2021/07/28 00:07:56;;;;;;;0.50;0.50;;;;;;;17.48;86.47;96719.53;29394;216;64009;-64
2021/07/28 00:08:28;;;;;;;0.50;0.50;;;;;;;17.46;86.51;96716.31;29395;251;63004;-64
2021/07/28 00:08:59;;;;;;;0.40;0.40;;;;;;;17.46;86.41;96719.06;29395;205;63008;-62
2021/07/28 00:09:31;;;;;;;0.40;0.40;;;;;;;17.46;86.04;96717.13;29395;244;63004;-64
2021/07/28 00:10:03;;;;;;;0.40;0.40;;;;;;;17.47;86.30;96715.19;29395;197;63009;-63
2021/07/28 00:10:34;;;;;;;0.40;0.40;;;;;;;17.47;86.34;96712.44;29395;206;63007;-63
2021/07/28 00:11:11;;;;;;;0.40;0.40;;;;;;;17.46;86.43;96713.59;29394;197;64009;-63
2021/07/28 00:11:42;;;;;;;0.40;0.40;;;;;;;17.45;86.78;96709.25;29395;246;63005;-63
2021/07/28 00:12:16;;;;;;;0.40;0.40;;;;;;;17.44;87.31;96713.91;29395;228;63009;-64
2021/07/28 00:12:47;;;;;;;0.40;0.40;;;;;;;17.40;87.57;96707.50;29394;246;64005;-64
2021/07/28 00:13:18;;;;;;;0.40;0.40;;;;;;;17.39;87.53;96706.72;29395;216;63009;-63
2021/07/28 00:13:50;;;;;;;0.40;0.40;;;;;;;17.38;87.57;96707.84;29395;212;63004;-63
2021/07/28 00:14:21;;;;;;;0.40;0.40;;;;;;;17.38;87.56;96709.78;29395;196;63024;-63
2021/07/28 00:14:52;;;;;;;0.40;0.40;;;;;;;17.37;87.42;96709.00;29395;213;63004;-64
2021/07/28 00:15:24;;;;;;;0.40;0.40;;;;;;;17.36;87.52;96712.88;29394;199;64009;-64
2021/07/28 00:15:57;;;;;;;0.40;0.40;;;;;;;17.36;87.17;96712.88;29395;233;63004;-62
2021/07/28 00:16:28;;;;;;;0.40;0.40;;;;;;;17.37;86.86;96709.00;29395;196;63008;-62
2021/07/28 00:17:00;;;;;;;0.47;0.47;;;;;;;17.38;87.17;96716.09;29395;208;63004;-61
2021/07/28 00:17:31;;;;;;;0.40;0.40;;;;;;;17.40;86.85;96713.81;29395;219;63009;-63
2021/07/28 00:18:11;;;;;;;0.40;0.40;;;;;;;17.41;86.95;96709.91;29395;216;63005;-64
2021/07/28 00:23:15;;;;;;;0.45;0.45;;;;;;;17.39;87.11;96701.22;29394;212;64004;-64
2021/07/28 00:23:47;;;;;;;0.40;0.40;;;;;;;17.40;87.12;96708.31;29395;203;63008;-64
2021/07/28 00:24:18;;;;;;;0.40;0.40;;;;;;;17.39;86.75;96701.22;29395;206;63005;-62
2021/07/28 00:24:49;;;;;;;0.40;0.40;;;;;;;17.41;86.66;96707.16;29395;230;63009;-63
2021/07/28 00:25:20;;;;;;;0.40;0.40;;;;;;;17.42;86.66;96703.28;29395;228;63005;-61
2021/07/28 00:25:52;;;;;;;0.47;0.47;;;;;;;17.45;86.69;96698.25;29395;216;63009;-61
2021/07/28 00:26:23;;;;;;;0.40;0.40;;;;;;;17.46;86.51;96705.34;29395;198;63005;-63
2021/07/28 00:26:54;;;;;;;0.40;0.40;;;;;;;17.47;86.42;96706.97;29395;213;63009;-62
2021/07/28 00:27:26;;;;;;;0.40;0.40;;;;;;;17.47;86.43;96704.22;29394;321;64005;-62
2021/07/28 00:27:57;;;;;;;0.40;0.40;;;;;;;17.46;86.44;96711.62;29395;361;63009;-63
2021/07/28 00:28:28;;;;;;;0.43;0.43;;;;;;;17.45;86.38;96714.72;29395;230;63004;-64
2021/07/28 00:28:59;;;;;;;0.40;0.40;;;;;;;17.45;86.44;96709.25;29395;202;63009;-64
2021/07/28 00:29:31;;;;;;;0.40;0.40;;;;;;;17.45;86.21;96717.47;29395;209;63004;-64
2021/07/28 00:30:08;;;;;;;0.40;0.40;;;;;;;17.43;86.61;96713.12;29395;222;63009;-64
2021/07/28 00:30:43;;;;;;;0.35;0.35;;;;;;;17.43;86.34;96717.81;29395;208;63004;-63
2021/07/28 00:31:15;;;;;;;0.40;0.40;;;;;;;17.42;86.35;96717.00;29394;210;64008;-63
2021/07/28 00:31:46;;;;;;;0.40;0.40;;;;;;;17.43;86.13;96718.59;29395;253;63005;-65
2021/07/28 00:32:17;;;;;;;0.40;0.40;;;;;;;17.43;86.25;96715.87;29395;213;63009;-64
2021/07/28 00:32:48;;;;;;;0.40;0.40;;;;;;;17.45;86.43;96720.22;29395;211;63005;-63
2021/07/28 00:33:19;;;;;;;0.40;0.40;;;;;;;17.43;86.40;96724.09;29395;222;63009;-64
2021/07/28 00:33:50;;;;;;;0.40;0.40;;;;;;;17.43;86.40;96723.28;29395;244;63011;-64
2021/07/28 00:34:23;;;;;;;0.50;0.50;;;;;;;17.43;86.29;96724.09;29395;207;63009;-63
2021/07/28 00:34:54;;;;;;;0.40;0.40;;;;;;;17.43;86.30;96723.28;29395;216;63005;-63
2021/07/28 00:35:25;;;;;;;0.40;0.40;;;;;;;17.44;86.13;96724.91;29395;227;63009;-63
2021/07/28 00:35:56;;;;;;;0.40;0.40;;;;;;;17.45;86.45;96725.69;29394;205;64004;-64
2021/07/28 00:36:27;;;;;;;0.40;0.40;;;;;;;17.43;86.62;96717.81;29395;204;63009;-60
2021/07/28 00:36:58;;;;;;;0.40;0.40;;;;;;;17.42;86.50;96722.50;29395;206;63004;-58
2021/07/28 00:37:29;;;;;;;0.40;0.40;;;;;;;17.43;86.78;96717.81;29395;210;63009;-62
2021/07/28 00:38:05;;;;;;;0.40;0.40;;;;;;;17.43;86.88;96717.81;29395;282;63004;-63
2021/07/28 00:38:36;;;;;;;0.40;0.40;;;;;;;17.41;86.84;96715.41;29395;222;63008;-61
2021/07/28 00:39:08;;;;;;;0.47;0.47;;;;;;;17.41;86.71;96720.88;29394;228;64005;-61
2021/07/28 00:39:39;;;;;;;0.40;0.40;;;;;;;17.40;86.69;96722.03;29394;203;64009;-61
2021/07/28 00:40:13;;;;;;;0.40;0.40;;;;;;;17.40;86.90;96729.47;29395;229;63005;-62
2021/07/28 00:40:46;;;;;;;0.40;0.40;;;;;;;17.36;86.56;96712.88;29395;315;63009;-62
2021/07/28 00:41:17;;;;;;;0.50;0.50;;;;;;;17.39;86.69;96728.66;29395;221;63005;-63
2021/07/28 00:41:48;;;;;;;0.40;0.40;;;;;;;17.38;86.92;96720.75;29395;307;63009;-61
2021/07/28 00:42:19;;;;;;;0.40;0.40;;;;;;;17.38;86.52;96727.06;29395;358;63010;-61
2021/07/28 00:42:51;;;;;;;0.40;0.40;;;;;;;17.39;87.02;96725.91;29395;234;63009;-63
2021/07/28 00:43:25;;;;;;;0.40;0.40;;;;;;;17.39;87.02;96725.91;29395;209;63004;-63
2021/07/28 00:43:57;;;;;;;0.40;0.40;;;;;;;17.39;86.77;96717.69;29395;208;63009;-62
2021/07/28 00:44:28;;;;;;;0.40;0.40;;;;;;;17.39;86.59;96723.16;29394;226;64004;-63
2021/07/28 00:44:59;;;;;;;0.40;0.40;;;;;;;17.38;86.62;96721.56;29395;228;63009;-63
2021/07/28 00:45:31;;;;;;;0.40;0.40;;;;;;;17.36;86.62;96723.84;29395;232;63004;-63
2021/07/28 00:46:02;;;;;;;0.40;0.40;;;;;;;17.36;86.56;96721.09;29395;218;63008;-61
2021/07/28 00:46:34;;;;;;;0.40;0.40;;;;;;;17.35;86.74;96722.25;29395;259;63004;-61
2021/07/28 00:47:05;;;;;;;0.40;0.40;;;;;;;17.35;86.36;96721.44;29394;208;64009;-62
2021/07/28 00:47:37;;;;;;;0.45;0.45;;;;;;;17.35;86.46;96727.72;29395;266;63005;-61
2021/07/28 00:48:14;;;;;;;0.47;0.47;;;;;;;17.34;86.98;96726.13;29394;202;64009;-61
2021/07/28 00:48:46;;;;;;;0.50;0.50;;;;;;;17.33;86.75;96719.03;29395;242;63018;-62
2021/07/28 00:49:17;;;;;;;0.40;0.40;;;;;;;17.33;87.35;96729.22;29395;251;63009;-62
2021/07/28 00:49:49;;;;;;;0.40;0.40;;;;;;;17.33;87.18;96727.25;29394;205;64005;-63
2021/07/28 00:50:20;;;;;;;0.40;0.40;;;;;;;17.31;87.54;96726.84;29395;246;63009;-61
2021/07/28 00:50:52;;;;;;;0.40;0.40;;;;;;;17.31;87.27;96723.28;29395;215;63004;-61
2021/07/28 00:51:24;;;;;;;0.40;0.40;;;;;;;17.31;87.91;96723.28;29395;206;63009;-62
2021/07/28 00:52:02;;;;;;;0.50;0.50;;;;;;;17.30;87.84;96724.44;29395;218;63004;-63
2021/07/28 00:52:37;;;;;;;0.40;0.40;;;;;;;17.28;87.63;96721.22;29395;234;63009;-62
2021/07/28 00:53:19;;;;;;;0.40;0.40;;;;;;;17.32;87.73;96722.16;29394;227;64004;-59
2021/07/28 00:53:51;;;;;;;0.50;0.50;;;;;;;17.35;87.16;96721.44;29395;221;63008;-61
2021/07/28 00:54:24;;;;;;;0.50;0.50;;;;;;;17.37;86.62;96724.66;29395;209;63005;-59
2021/07/28 00:54:59;;;;;;;0.45;0.45;;;;;;;17.42;86.02;96727.97;29394;216;64009;-61
2021/07/28 00:55:31;;;;;;;0.50;0.50;;;;;;;17.45;85.89;96726.50;29395;228;63005;-62
2021/07/28 00:56:03;;;;;;;0.40;0.40;;;;;;;17.45;85.76;96728.44;29395;274;63009;-57
2021/07/28 00:56:35;;;;;;;0.40;0.40;;;;;;;17.41;86.21;96723.63;29395;257;63005;-63
2021/07/28 00:57:10;;;;;;;0.50;0.50;;;;;;;17.39;86.71;96723.16;29395;199;63009;-64
2021/07/28 00:57:41;;;;;;;0.40;0.40;;;;;;;17.36;86.98;96729.34;29395;212;63005;-64
2021/07/28 00:58:13;;;;;;;0.40;0.40;;;;;;;17.33;86.87;96719.03;29395;260;63009;-63
2021/07/28 00:58:45;;;;;;;0.47;0.47;;;;;;;17.31;87.05;96717.81;29395;233;63015;-62
2021/07/28 00:59:17;;;;;;;0.40;0.40;;;;;;;17.30;86.96;96724.44;29394;212;64009;-61
2021/07/28 00:59:48;;;;;;;0.40;0.40;;;;;;;17.29;87.17;96718.16;29395;240;63004;-59
2021/07/28 01:00:19;;;;;;;0.45;0.45;;;;;;;17.28;87.07;96723.97;29395;219;63009;-63
2021/07/28 01:00:53;;;;;;;0.40;0.40;;;;;;;17.27;87.47;96714.94;29395;203;63004;-63
2021/07/28 01:01:26;;;;;;;0.40;0.40;;;;;;;17.27;87.71;96719.62;29395;255;63008;-63
2021/07/28 01:01:57;;;;;;;0.40;0.40;;;;;;;17.25;88.04;96717.22;29395;261;63005;-60
2021/07/28 01:02:28;;;;;;;0.40;0.40;;;;;;;17.23;87.98;96718.69;29395;231;63009;-63
2021/07/28 01:02:59;;;;;;;0.40;0.40;;;;;;;17.22;87.83;96720.62;29395;218;63005;-63
2021/07/28 01:03:31;;;;;;;0.40;0.40;;;;;;;17.21;87.69;96724.53;29394;265;64009;-62
2021/07/28 01:04:02;;;;;;;0.40;0.40;;;;;;;17.21;87.75;96727.25;29395;218;63019;-62
2021/07/28 01:04:34;;;;;;;0.40;0.40;;;;;;;17.21;88.16;96730.00;29395;209;63009;-62
2021/07/28 01:05:06;;;;;;;0.47;0.47;;;;;;;17.21;87.68;96720.97;29395;202;63005;-62
2021/07/28 01:05:38;;;;;;;0.43;0.43;;;;;;;17.21;87.89;96731.94;29395;219;63009;-61
2021/07/28 01:06:12;;;;;;;0.40;0.40;;;;;;;17.22;87.79;96728.88;29395;216;63004;-62
2021/07/28 01:06:44;;;;;;;0.50;0.50;;;;;;;17.21;87.91;96732.75;29395;225;63009;-61
2021/07/28 01:07:15;;;;;;;0.40;0.40;;;;;;;17.21;87.88;96731.94;29394;299;64004;-62
2021/07/28 01:07:46;;;;;;;0.40;0.40;;;;;;;17.19;88.10;96726.81;29395;238;63009;-61
2021/07/28 01:08:17;;;;;;;0.40;0.40;;;;;;;17.20;88.22;96731.16;29395;340;63004;-63
2021/07/28 01:08:49;;;;;;;0.45;0.45;;;;;;;17.18;87.86;96716.97;29394;197;64008;-61
2021/07/28 01:09:20;;;;;;;0.40;0.40;;;;;;;17.18;87.99;96722.47;29395;242;63005;-62
2021/07/28 01:09:51;;;;;;;0.40;0.40;;;;;;;17.18;87.95;96722.47;29395;258;63009;-58
2021/07/28 01:10:22;;;;;;;0.40;0.40;;;;;;;17.18;88.11;96722.47;29394;250;64005;-60
2021/07/28 01:10:59;;;;;;;0.40;0.40;;;;;;;17.17;88.36;96726.34;29395;247;63009;-60
2021/07/28 01:11:30;;;;;;;0.40;0.40;;;;;;;17.17;88.30;96725.53;29395;223;63005;-64
2021/07/28 01:12:04;;;;;;;0.40;0.40;;;;;;;17.17;88.44;96725.53;29395;199;63009;-64
2021/07/28 01:12:42;;;;;;;0.40;0.40;;;;;;;17.17;88.54;96722.78;29395;210;63013;-65
2021/07/28 01:13:15;;;;;;;0.40;0.40;;;;;;;17.16;88.31;96726.69;29395;225;63009;-63
2021/07/28 01:13:47;;;;;;;0.40;0.40;;;;;;;17.16;88.07;96718.44;29394;220;64004;-63
2021/07/28 01:14:20;;;;;;;0.40;0.40;;;;;;;17.17;88.23;96731.03;29395;306;63012;-63
2021/07/28 01:14:51;;;;;;;0.40;0.40;;;;;;;17.14;88.54;96732.50;29395;216;63004;-62
2021/07/28 01:15:42;;;;;;;0.40;0.40;;;;;;;17.14;88.55;96729.75;29395;237;63009;-63
2021/07/28 01:16:21;;;;;;;0.40;0.40;;;;;;;17.13;88.80;96730.87;29395;267;63004;-63
2021/07/28 01:16:55;;;;;;;0.50;0.50;;;;;;;17.14;88.73;96728.94;29395;215;63009;-64
2021/07/28 01:17:26;;;;;;;0.70;0.70;;;;;;;17.14;88.31;96726.22;29395;289;63005;-66
2021/07/28 01:18:00;;;;;;;0.40;0.40;;;;;;;17.14;88.46;96728.94;29395;230;63009;-64
2021/07/28 01:18:33;;;;;;;0.40;0.40;;;;;;;17.14;88.56;96727.00;29394;202;64005;-62
2021/07/28 01:19:11;;;;;;;0.40;0.40;;;;;;;17.15;88.66;96730.56;29395;203;63009;-64
2021/07/28 01:19:48;;;;;;;0.45;0.45;;;;;;;17.14;88.41;96732.50;29395;278;63005;-62
2021/07/28 01:20:23;;;;;;;0.40;0.40;;;;;;;17.15;88.29;96739.56;29395;228;63009;-64
2021/07/28 01:20:55;;;;;;;0.40;0.40;;;;;;;17.16;88.61;96740.38;29395;221;63004;-63
2021/07/28 01:21:26;;;;;;;0.50;0.50;;;;;;;17.14;89.05;96743.47;29395;212;63009;-65
2021/07/28 01:22:02;;;;;;;0.40;0.40;;;;;;;17.13;88.89;96730.87;29394;281;64004;-63
2021/07/28 01:22:34;;;;;;;0.40;0.40;;;;;;;17.15;88.86;96736.84;29395;257;63024;-65
2021/07/28 01:23:26;;;;;;;0.40;0.40;;;;;;;17.15;88.53;96736.84;29395;204;63004;-65
2021/07/28 01:23:57;;;;;;;0.40;0.40;;;;;;;17.15;88.63;96736.03;29417;218;63008;-63
2021/07/28 01:24:29;;;;;;;0.40;0.40;;;;;;;17.14;88.58;96732.50;29395;232;63005;-62
2021/07/28 01:25:01;;;;;;;0.50;0.50;;;;;;;17.13;88.93;96736.38;29395;247;63009;-64
2021/07/28 01:25:37;;;;;;;0.40;0.40;;;;;;;17.13;89.22;96725.41;29394;205;64005;-64
2021/07/28 01:26:09;;;;;;;0.40;0.40;;;;;;;17.11;89.32;96727.69;29395;203;63009;-63
2021/07/28 01:26:41;;;;;;;0.40;0.40;;;;;;;17.08;89.25;96725.63;29394;216;64005;-64
2021/07/28 01:27:13;;;;;;;0.40;0.40;;;;;;;17.05;89.52;96718.06;29395;228;63009;-64
2021/07/28 01:27:46;;;;;;;0.50;0.50;;;;;;;17.05;89.63;96718.06;29395;213;63004;-63
2021/07/28 01:28:21;;;;;;;0.40;0.40;;;;;;;17.03;89.36;96714.88;29395;227;63009;-63
2021/07/28 01:28:53;;;;;;;0.40;0.40;;;;;;;17.02;89.23;96716.81;29395;212;63004;-64
2021/07/28 01:29:25;;;;;;;0.43;0.43;;;;;;;17.02;89.08;96725.03;29395;230;63009;-62
2021/07/28 01:29:56;;;;;;;0.40;0.40;;;;;;;17.03;88.92;96725.84;29395;209;63004;-64
2021/07/28 01:30:27;;;;;;;0.50;0.50;;;;;;;17.04;88.92;96733.72;29395;273;63008;-62
2021/07/28 01:31:07;;;;;;;0.40;0.40;;;;;;;17.05;88.91;96729.03;29395;238;63004;-63
2021/07/28 01:31:40;;;;;;;0.40;0.40;;;;;;;17.05;89.31;96726.28;29394;215;64009;-63
2021/07/28 01:32:14;;;;;;;0.50;0.50;;;;;;;17.05;89.44;96729.03;29395;218;63010;-63
2021/07/28 01:32:48;;;;;;;0.40;0.40;;;;;;;17.04;89.35;96730.19;29395;211;63009;-63
2021/07/28 01:33:19;;;;;;;0.40;0.40;;;;;;;17.04;89.51;96732.91;29395;261;63005;-64
2021/07/28 01:33:50;;;;;;;0.60;0.60;;;;;;;17.03;89.37;96734.06;29395;237;63009;-63
2021/07/28 01:34:21;;;;;;;0.40;0.40;;;;;;;17.00;89.36;96737.47;29395;216;63005;-64
2021/07/28 01:34:53;;;;;;;0.45;0.45;;;;;;;17.00;89.43;96731.97;29395;218;63009;-63
2021/07/28 01:35:25;;;;;;;0.40;0.40;;;;;;;17.00;89.67;96731.97;29395;202;63004;-63
2021/07/28 01:35:58;;;;;;;0.40;0.40;;;;;;;16.99;89.99;96730.38;29395;211;63009;-64
2021/07/28 01:36:30;;;;;;;0.50;0.50;;;;;;;16.99;90.26;96738.59;29395;249;63004;-64
2021/07/28 01:37:04;;;;;;;0.50;0.50;;;;;;;16.97;90.02;96733.50;29394;206;64009;-63
2021/07/28 01:37:36;;;;;;;0.40;0.40;;;;;;;16.97;90.07;96738.16;29395;236;63004;-63
2021/07/28 01:38:07;;;;;;;0.40;0.40;;;;;;;16.96;89.84;96725.59;29395;203;63008;-64
2021/07/28 01:38:38;;;;;;;0.40;0.40;;;;;;;16.96;89.76;96725.59;29395;248;63005;-64
2021/07/28 01:39:10;;;;;;;0.40;0.40;;;;;;;16.95;89.92;96729.47;29394;219;64009;-64
2021/07/28 01:39:42;;;;;;;0.40;0.40;;;;;;;16.94;90.17;96717.72;29395;243;63005;-64
2021/07/28 01:40:14;;;;;;;0.50;0.50;;;;;;;16.94;90.09;96719.66;29395;280;63009;-62
2021/07/28 01:40:45;;;;;;;0.40;0.40;;;;;;;16.93;90.24;96721.59;29395;197;63014;-63
2021/07/28 01:41:17;;;;;;;0.40;0.40;;;;;;;16.93;90.24;96726.28;29395;210;63009;-64
2021/07/28 01:42:00;;;;;;;0.50;0.50;;;;;;;16.92;90.04;96713.72;29395;236;63005;-64
2021/07/28 01:42:47;;;;;;;0.40;0.40;;;;;;;16.90;90.12;96729.69;29395;230;63026;-65
2021/07/28 01:43:21;;;;;;;0.40;0.40;;;;;;;16.90;90.04;96722.28;29394;227;64004;-63
2021/07/28 01:43:52;;;;;;;0.40;0.40;;;;;;;16.89;90.22;96715.19;29395;218;63009;-64
2021/07/28 01:44:24;;;;;;;0.50;0.50;;;;;;;16.88;90.30;96718.25;29394;235;64004;-65
2021/07/28 01:44:55;;;;;;;0.40;0.40;;;;;;;16.88;90.45;96723.75;29395;221;63019;-66
2021/07/28 01:45:26;;;;;;;0.40;0.40;;;;;;;16.87;90.18;96720.19;29395;262;63019;-63
2021/07/28 01:45:59;;;;;;;0.50;0.50;;;;;;;16.88;90.01;96712.78;29395;209;63013;-64
2021/07/28 01:46:37;;;;;;;0.40;0.40;;;;;;;16.87;89.96;96722.13;29395;207;63005;-64
2021/07/28 01:47:11;;;;;;;1.50;1.50;;;;;;;16.86;90.26;96721.34;29395;205;63009;-63
2021/07/28 01:47:43;;;;;;;0.40;0.40;;;;;;;16.85;90.07;96710.72;29395;204;63005;-61
2021/07/28 01:48:14;;;;;;;0.62;0.62;;;;;;;16.84;90.13;96717.34;29395;237;63009;-63
2021/07/28 01:48:46;;;;;;;0.40;0.40;;;;;;;16.84;90.07;96717.34;29395;209;63005;-62
2021/07/28 01:49:17;;;;;;;0.50;0.50;;;;;;;16.83;90.08;96716.53;29394;205;64009;-61
2021/07/28 01:49:48;;;;;;;0.50;0.50;;;;;;;16.84;89.99;96725.56;29395;210;63005;-62
2021/07/28 01:50:20;;;;;;;0.50;0.50;;;;;;;16.84;89.80;96718.13;29395;202;63009;-62
2021/07/28 01:50:55;;;;;;;0.40;0.40;;;;;;;16.84;90.16;96722.81;29395;209;63004;-63
2021/07/28 01:51:26;;;;;;;0.50;0.50;;;;;;;16.82;90.32;96714.94;29395;198;63009;-63
2021/07/28 01:51:57;;;;;;;0.50;0.50;;;;;;;16.81;90.25;96720.75;29395;233;63004;-63
2021/07/28 01:52:28;;;;;;;0.50;0.50;;;;;;;16.82;90.23;96719.59;29395;208;63009;-63
2021/07/28 01:53:04;;;;;;;0.40;0.40;;;;;;;16.81;90.50;96718.00;29395;219;63004;-62
2021/07/28 01:53:36;;;;;;;0.50;0.50;;;;;;;16.80;90.57;96717.19;29395;235;63008;-62
2021/07/28 01:54:07;;;;;;;0.50;0.50;;;;;;;16.81;90.45;96720.75;29394;236;64005;-61
2021/07/28 01:54:39;;;;;;;0.40;0.40;;;;;;;16.81;90.37;96715.25;29395;237;63009;-63
2021/07/28 01:55:11;;;;;;;0.50;0.50;;;;;;;16.81;90.33;96713.31;29395;251;63005;-62
2021/07/28 01:55:44;;;;;;;0.40;0.40;;;;;;;16.82;90.54;96720.41;29395;377;63009;-62
2021/07/28 01:56:17;;;;;;;0.40;0.40;;;;;;;16.83;90.55;96726.69;29395;214;63005;-62
2021/07/28 01:56:48;;;;;;;0.50;0.50;;;;;;;16.82;90.61;96720.41;29395;210;63009;-63
2021/07/28 01:57:19;;;;;;;0.40;0.40;;;;;;;16.81;90.55;96718.81;29395;222;63005;-65
2021/07/28 01:57:51;;;;;;;0.40;0.40;;;;;;;16.82;90.46;96716.87;29395;218;63012;-63
2021/07/28 01:58:22;;;;;;;0.40;0.40;;;;;;;16.82;90.51;96719.59;29395;220;63016;-63
2021/07/28 01:58:54;;;;;;;0.40;0.40;;;;;;;16.82;90.71;96714.13;29394;212;64009;-64
2021/07/28 01:59:26;;;;;;;0.40;0.40;;;;;;;16.81;90.69;96718.81;29395;213;63011;-63
2021/07/28 02:00:00;;;;;;;0.50;0.50;;;;;;;16.80;90.50;96719.12;29394;306;64009;-62
2021/07/28 02:00:32;;;;;;;0.50;0.50;;;;;;;16.80;90.59;96722.69;29395;219;63000;-58
2021/07/28 02:01:03;;;;;;;0.50;0.50;;;;;;;16.79;90.71;96715.59;29395;210;63008;-64
2021/07/28 02:01:34;;;;;;;0.50;0.50;;;;;;;16.78;90.86;96719.47;29395;214;63005;-63
2021/07/28 02:02:05;;;;;;;0.50;0.50;;;;;;;16.76;90.90;96721.75;29395;198;63009;-63
2021/07/28 02:02:41;;;;;;;0.40;0.40;;;;;;;16.75;91.22;96715.47;29395;238;63005;-63
2021/07/28 02:03:13;;;;;;;0.40;0.40;;;;;;;16.75;91.24;96720.16;29395;237;63009;-64
2021/07/28 02:03:44;;;;;;;0.40;0.40;;;;;;;16.75;91.26;96714.66;29394;214;64005;-63
2021/07/28 02:04:15;;;;;;;0.50;0.50;;;;;;;16.74;91.18;96719.34;29395;240;63009;-64
2021/07/28 02:04:46;;;;;;;0.45;0.45;;;;;;;16.72;91.13;96716.13;29395;204;63005;-63
2021/07/28 02:05:17;;;;;;;0.50;0.50;;;;;;;16.74;91.09;96708.37;29395;202;63009;-65
2021/07/28 02:05:49;;;;;;;0.50;0.50;;;;;;;16.75;90.75;96704.50;29395;218;63004;-64
2021/07/28 02:06:20;;;;;;;0.50;0.50;;;;;;;16.75;90.64;96710.00;29395;215;63009;-63
2021/07/28 02:06:51;;;;;;;0.40;0.40;;;;;;;16.77;90.18;96717.06;29395;235;63004;-63
2021/07/28 02:07:22;;;;;;;0.50;0.50;;;;;;;16.77;90.46;96711.59;29395;300;63009;-62
2021/07/28 02:07:53;;;;;;;0.40;0.40;;;;;;;16.78;90.36;96714.00;29395;204;63004;-63
2021/07/28 02:08:25;;;;;;;0.40;0.40;;;;;;;16.77;90.09;96717.88;29394;242;64008;-63
2021/07/28 02:08:56;;;;;;;0.40;0.40;;;;;;;16.78;90.45;96713.19;29395;212;63005;-61
2021/07/28 02:09:27;;;;;;;0.40;0.40;;;;;;;16.79;90.57;96715.59;29395;239;63009;-63
2021/07/28 02:09:59;;;;;;;0.40;0.40;;;;;;;16.79;90.41;96710.13;29395;204;63005;-63
2021/07/28 02:10:31;;;;;;;0.40;0.40;;;;;;;16.79;90.69;96709.31;29395;206;63009;-63
2021/07/28 02:11:03;;;;;;;0.40;0.40;;;;;;;16.78;91.00;96708.50;29395;202;63005;-63
2021/07/28 02:11:35;;;;;;;0.40;0.40;;;;;;;16.77;90.69;96706.91;29394;340;64009;-59
2021/07/28 02:12:07;;;;;;;0.50;0.50;;;;;;;16.79;90.42;96709.31;29395;237;63005;-63
2021/07/28 02:12:38;;;;;;;0.40;0.40;;;;;;;16.79;90.45;96710.13;29395;264;63009;-64
2021/07/28 02:13:10;;;;;;;0.40;0.40;;;;;;;16.77;89.96;96706.13;29395;251;63004;-64
2021/07/28 02:13:42;;;;;;;0.40;0.40;;;;;;;16.75;89.91;96706.44;29395;324;63009;-63
2021/07/28 02:14:13;;;;;;;0.50;0.50;;;;;;;16.75;89.95;96710.00;29395;332;63004;-63
2021/07/28 02:14:44;;;;;;;0.50;0.50;;;;;;;16.74;90.18;96708.37;29395;234;63009;-63
2021/07/28 02:15:17;;;;;;;0.40;0.40;;;;;;;16.75;90.19;96704.50;29394;210;64004;-65
2021/07/28 02:15:48;;;;;;;0.40;0.40;;;;;;;16.76;89.87;96705.31;29395;297;63008;-63
2021/07/28 02:16:21;;;;;;;0.40;0.40;;;;;;;16.75;89.75;96704.50;29395;206;63004;-62
2021/07/28 02:16:55;;;;;;;0.50;0.50;;;;;;;16.75;90.14;96704.50;29394;230;64009;-63
2021/07/28 02:17:27;;;;;;;0.40;0.40;;;;;;;16.78;89.57;96707.72;29395;273;63005;-64
2021/07/28 02:17:59;;;;;;;0.40;0.40;;;;;;;16.75;89.65;96704.50;29395;298;63009;-62
2021/07/28 02:18:30;;;;;;;0.40;0.40;;;;;;;16.77;89.69;96706.13;29394;326;64005;-63
2021/07/28 02:19:02;;;;;;;0.40;0.40;;;;;;;16.75;89.34;96696.28;29395;204;63009;-62
2021/07/28 02:19:33;;;;;;;0.40;0.40;;;;;;;16.75;89.28;96696.28;29395;222;63005;-64
2021/07/28 02:20:06;;;;;;;0.50;0.50;;;;;;;16.76;89.27;96694.34;29395;303;63009;-63
2021/07/28 02:20:37;;;;;;;0.50;0.50;;;;;;;16.75;88.89;96699.03;29394;313;64004;-62
2021/07/28 02:21:11;;;;;;;0.40;0.40;;;;;;;16.74;88.66;96697.44;29395;204;63009;-63
2021/07/28 02:21:46;;;;;;;0.40;0.40;;;;;;;16.72;87.86;96694.22;29395;307;63004;-62
2021/07/28 02:22:17;;;;;;;0.40;0.40;;;;;;;16.72;88.21;96696.97;29394;281;64008;-63
2021/07/28 02:22:49;;;;;;;0.40;0.40;;;;;;;16.71;88.18;96698.09;29395;220;63004;-64
2021/07/28 02:23:20;;;;;;;0.40;0.40;;;;;;;16.72;nan;96696.97;29394;227;63999;-62
2021/07/28 02:23:54;;;;;;;0.43;0.43;;;;;;;16.72;88.22;96698.91;29395;211;63004;-63
2021/07/28 02:24:26;;;;;;;0.40;0.40;;;;;;;16.71;88.21;96700.84;29395;225;63009;-62
2021/07/28 02:24:57;;;;;;;0.40;0.40;;;;;;;16.72;88.40;96705.19;29395;214;63005;-64
2021/07/28 02:25:28;;;;;;;0.50;0.50;;;;;;;16.71;88.33;96697.28;29394;218;64009;-63
2021/07/28 02:26:00;;;;;;;0.47;0.47;;;;;;;16.71;88.68;96703.56;29395;234;63005;-62
2021/07/28 02:26:31;;;;;;;0.40;0.40;;;;;;;16.69;88.53;96703.09;29395;324;63009;-64
2021/07/28 02:27:02;;;;;;;0.40;0.40;;;;;;;16.69;88.70;96694.91;29395;247;63005;-62
2021/07/28 02:27:33;;;;;;;0.50;0.50;;;;;;;16.69;88.64;96705.06;29395;216;63009;-63
2021/07/28 02:28:04;;;;;;;0.40;0.40;;;;;;;16.70;88.44;96701.16;29394;239;64004;-63
2021/07/28 02:28:35;;;;;;;0.40;0.40;;;;;;;16.69;88.46;96707.78;29395;222;63009;-62
2021/07/28 02:29:06;;;;;;;0.43;0.43;;;;;;;16.70;88.32;96706.66;29395;268;63000;-64
2021/07/28 02:29:37;;;;;;;0.40;0.40;;;;;;;16.69;88.37;96705.84;29394;289;64009;-63
2021/07/28 02:30:11;;;;;;;0.40;0.40;;;;;;;16.70;88.24;96707.44;29395;214;63016;-63
2021/07/28 02:30:43;;;;;;;0.40;0.40;;;;;;;16.70;88.31;96701.97;29395;197;63009;-65
2021/07/28 02:31:14;;;;;;;0.40;0.40;;;;;;;16.70;88.03;96707.44;29394;204;64005;-64
2021/07/28 02:31:46;;;;;;;0.50;0.50;;;;;;;16.70;88.20;96707.44;29394;228;64009;-64
2021/07/28 02:32:21;;;;;;;0.40;0.40;;;;;;;16.70;88.15;96706.66;29395;286;63005;-64
2021/07/28 02:32:52;;;;;;;0.40;0.40;;;;;;;16.70;88.00;96707.44;29395;222;63025;-64
2021/07/28 02:33:24;;;;;;;0.40;0.40;;;;;;;16.72;88.08;96704.38;29395;220;63000;-65
2021/07/28 02:33:55;;;;;;;0.40;0.40;;;;;;;16.70;87.66;96701.97;29395;224;63009;-65
2021/07/28 02:34:26;;;;;;;0.40;0.40;;;;;;;16.70;87.57;96707.44;29395;231;63005;-63
2021/07/28 02:34:57;;;;;;;0.50;0.50;;;;;;;16.71;87.65;96705.50;29395;202;63009;-63
2021/07/28 02:35:28;;;;;;;0.40;0.40;;;;;;;16.70;87.58;96707.44;29395;211;63004;-64
2021/07/28 02:36:00;;;;;;;0.40;0.40;;;;;;;16.70;87.49;96706.66;29394;329;64009;-64
2021/07/28 02:36:31;;;;;;;0.40;0.40;;;;;;;16.67;87.51;96708.13;29395;196;63004;-62
2021/07/28 02:37:02;;;;;;;0.40;0.40;;;;;;;16.67;87.55;96701.84;29395;218;63009;-63
2021/07/28 02:37:35;;;;;;;0.43;0.43;;;;;;;16.67;87.85;96707.31;29395;202;63004;-63
2021/07/28 02:38:09;;;;;;;0.50;0.50;;;;;;;16.67;87.65;96699.91;29395;351;63008;-63
2021/07/28 02:38:40;;;;;;;0.40;0.40;;;;;;;16.66;87.90;96701.03;29395;319;63005;-64
2021/07/28 02:39:11;;;;;;;0.40;0.40;;;;;;;16.68;88.21;96704.25;29395;341;63017;-65